Time;durP1;ratioP1;P1;durP2;ratioP2;P2;SDS_P1;SDS_P2;PMS_P1;PMS_P2;Temp;Humidity;BMP_temperature;BMP_pressure;BME280_temperature;BME280_humidity;BME280_pressure;Samples;Min_cycle;Max_cycle;Signal;HPM_P1;HPM_P2
2024/03/08 00:05:15;;;;;;;9.00;3.90;;;;;;;-2.91;71.45;99572.19;102660;1292;599839;-27
2024/03/08 00:07:43;;;;;;;4.60;2.90;;;;;;;-3.05;71.26;99565.97;104818;1267;61192;-27
2024/03/08 00:10:12;;;;;;;6.10;3.90;;;;;;;-3.26;72.12;99562.41;104837;1267;61055;-27
2024/03/08 00:12:42;;;;;;;7.70;3.50;;;;;;;-3.37;72.59;99561.73;104731;1267;72221;-27
2024/03/08 00:15:13;;;;;;;5.50;3.40;;;;;;;-3.51;73.25;99561.63;104768;1272;74368;-27
2024/03/08 00:25:24;;;;;;;8.40;4.60;;;;;;;-1.70;68.30;99549.84;102656;1295;600097;-28
2024/03/08 00:27:55;;;;;;;7.60;4.70;;;;;;;-1.95;68.41;99547.67;104822;1270;61156;-27
2024/03/08 00:30:25;;;;;;;8.70;4.50;;;;;;;-2.20;68.75;99547.35;104848;1265;61144;-27
2024/03/08 00:40:32;;;;;;;7.60;3.60;;;;;;;-2.99;70.82;99536.31;102667;1294;599635;-27
2024/03/08 00:50:36;;;;;;;5.90;3.50;;;;;;;-3.41;72.16;99525.98;102661;1292;599905;-27
2024/03/08 00:53:04;;;;;;;6.30;3.00;;;;;;;-3.54;72.27;99521.42;105078;1269;61168;-27
2024/03/08 00:55:33;;;;;;;10.50;4.40;;;;;;;-2.96;71.69;99522.13;104869;1267;61171;-27
2024/03/08 01:05:41;;;;;;;9.90;5.10;;;;;;;-1.92;67.52;99519.88;102775;1289;599662;-28
2024/03/08 01:08:11;;;;;;;10.20;5.60;;;;;;;-2.25;67.76;99516.34;104870;1263;61113;-29
2024/03/08 01:10:39;;;;;;;10.10;5.00;;;;;;;-2.56;68.19;99513.91;104911;1269;62719;-28
2024/03/08 01:13:06;;;;;;;7.20;4.10;;;;;;;-2.79;68.56;99513.84;104921;1269;71220;-28
2024/03/08 01:15:34;;;;;;;13.50;4.50;;;;;;;-3.01;68.95;99510.35;104945;1264;74368;-27
2024/03/08 01:18:01;;;;;;;8.70;4.40;;;;;;;-3.23;69.79;99510.39;104832;1272;72636;-28
2024/03/08 01:26:42;;;;;;;6.00;3.10;;;;;;;-3.78;71.19;99508.07;103126;1287;601083;-26
2024/03/08 01:36:51;;;;;;;6.20;3.90;;;;;;;-2.35;70.50;99509.55;102745;1292;598929;-25
2024/03/08 01:46:58;;;;;;;7.10;4.30;;;;;;;-2.62;68.45;99500.42;102745;1293;599516;-28
2024/03/08 01:49:26;;;;;;;7.10;4.40;;;;;;;-2.89;69.32;99499.77;104833;1267;61116;-28
2024/03/08 01:59:31;;;;;;;8.10;4.30;;;;;;;-3.61;71.26;99490.82;102700;1292;599880;-28
2024/03/08 02:09:40;;;;;;;6.30;3.30;;;;;;;-3.91;72.58;99487.72;102713;1294;599482;-27
2024/03/08 02:12:08;;;;;;;7.40;4.30;;;;;;;-4.04;72.95;99489.63;104856;1266;61117;-27
2024/03/08 02:14:36;;;;;;;9.70;4.60;;;;;;;-3.52;73.40;99492.88;104868;1265;61180;-27
2024/03/08 02:17:04;;;;;;;9.70;4.40;;;;;;;-2.42;71.10;99491.66;104890;1266;72180;-27
2024/03/08 02:19:32;;;;;;;10.30;6.20;;;;;;;-1.99;69.11;99495.34;105228;1263;74331;-27
2024/03/08 02:28:49;;;;;;;6.30;4.00;;;;;;;-2.60;69.19;99481.20;102695;1294;600112;-28
2024/03/08 02:31:16;;;;;;;8.00;4.70;;;;;;;-2.82;69.83;99481.28;104773;1266;61201;-28
2024/03/08 02:33:46;;;;;;;8.90;4.60;;;;;;;-2.99;70.01;99480.23;104840;1270;61121;-27
2024/03/08 02:36:13;;;;;;;7.20;4.00;;;;;;;-3.16;70.31;99478.02;104856;1266;71030;-25
2024/03/08 02:38:41;;;;;;;6.00;3.80;;;;;;;-3.31;70.45;99476.41;104896;1270;73086;-26
2024/03/08 02:41:10;;;;;;;8.00;3.90;;;;;;;-3.47;70.94;99474.47;104804;1266;72677;-26
2024/03/08 02:43:37;;;;;;;7.60;4.50;;;;;;;-3.62;71.45;99476.77;104955;1262;258808;-25
2024/03/08 02:46:05;;;;;;;8.80;4.00;;;;;;;-3.79;71.93;99479.73;105108;1263;61122;-26
2024/03/08 02:48:32;;;;;;;10.90;3.80;;;;;;;-3.36;72.59;99475.96;105132;1268;72215;-26
2024/03/08 02:51:01;;;;;;;9.00;4.90;;;;;;;-2.32;70.24;99475.16;105207;1262;74291;-26
2024/03/08 02:53:29;;;;;;;9.40;4.80;;;;;;;-1.93;68.43;99471.23;105091;1265;72610;-26
2024/03/08 02:55:57;;;;;;;9.20;6.50;;;;;;;-2.02;67.89;99473.27;105281;1259;61201;-26
2024/03/08 02:58:24;;;;;;;10.70;5.40;;;;;;;-2.23;67.67;99475.30;105246;1259;61742;-26
2024/03/08 03:08:33;;;;;;;7.20;3.80;;;;;;;-3.16;69.45;99467.82;102687;1292;599406;-27
2024/03/08 03:11:01;;;;;;;6.70;3.80;;;;;;;-3.36;69.94;99465.45;105002;1267;61153;-27
2024/03/08 03:21:31;;;;;;;6.90;4.10;;;;;;;-3.88;71.54;99465.11;102561;1290;615039;-26
2024/03/08 03:23:59;;;;;;;9.20;5.00;;;;;;;-3.99;72.20;99462.77;105137;1270;61260;-26
2024/03/08 03:26:25;;;;;;;13.80;5.30;;;;;;;-3.50;72.84;99466.55;105097;1269;61158;-26
2024/03/08 03:28:53;;;;;;;10.70;5.50;;;;;;;-2.48;70.99;99465.13;105218;1269;72183;-26
2024/03/08 03:31:23;;;;;;;15.80;7.90;;;;;;;-2.08;69.69;99463.73;105164;1264;74277;-26
2024/03/08 03:33:53;;;;;;;12.90;6.60;;;;;;;-2.12;69.14;99463.15;105542;1254;269008;-27
2024/03/08 03:36:20;;;;;;;12.00;6.60;;;;;;;-2.33;69.08;99459.69;105949;1251;61064;-28
2024/03/08 03:38:46;;;;;;;13.20;6.60;;;;;;;-2.56;69.51;99459.50;106031;1257;61089;-27
2024/03/08 03:41:14;;;;;;;11.10;5.80;;;;;;;-2.77;70.18;99459.09;105979;1255;72059;-27
2024/03/08 03:43:42;;;;;;;11.20;4.90;;;;;;;-2.98;70.33;99456.77;105985;1252;74339;-25
2024/03/08 03:46:10;;;;;;;13.40;5.20;;;;;;;-3.17;70.87;99455.94;105984;1251;72582;-26
2024/03/08 03:48:37;;;;;;;10.90;5.00;;;;;;;-3.33;71.05;99454.71;105951;1256;61048;-25
2024/03/08 03:51:04;;;;;;;11.10;5.20;;;;;;;-3.48;71.47;99453.77;105991;1253;61112;-25
2024/03/08 03:53:31;;;;;;;7.10;3.80;;;;;;;-3.61;71.63;99448.06;105991;1251;73247;-26
2024/03/08 03:55:59;;;;;;;7.60;4.00;;;;;;;-3.69;71.82;99448.88;105977;1257;74317;-26
2024/03/08 03:58:26;;;;;;;9.70;5.10;;;;;;;-3.79;72.60;99449.54;106014;1251;73017;-26
2024/03/08 04:00:53;;;;;;;8.40;4.40;;;;;;;-3.23;72.78;99450.44;106012;1250;61890;-25
2024/03/08 04:03:20;;;;;;;18.80;7.00;;;;;;;-2.21;70.35;99451.10;106011;1251;61115;-26
2024/03/08 04:05:47;;;;;;;13.00;5.40;;;;;;;-1.88;68.72;99447.63;105975;1251;73460;-26
2024/03/08 04:08:13;;;;;;;9.10;5.50;;;;;;;-2.02;68.08;99447.61;105940;1251;74111;-26
2024/03/08 04:10:43;;;;;;;14.60;7.70;;;;;;;-2.31;68.18;99446.39;105904;1251;72593;-26
2024/03/08 04:13:10;;;;;;;11.90;6.70;;;;;;;-2.66;69.38;99450.02;105938;1256;61080;-26
2024/03/08 04:15:37;;;;;;;13.50;7.10;;;;;;;-2.95;71.17;99447.73;105698;1255;61062;-26
2024/03/08 04:18:04;;;;;;;14.30;6.60;;;;;;;-3.13;71.79;99446.02;105912;1254;72999;-26
2024/03/08 04:20:31;;;;;;;18.90;6.60;;;;;;;-3.28;72.21;99445.77;105906;1255;74577;-26
2024/03/08 04:22:58;;;;;;;14.40;6.00;;;;;;;-3.39;72.58;99442.42;105782;1254;72608;-25
2024/03/08 04:25:26;;;;;;;15.40;6.20;;;;;;;-3.52;72.85;99443.16;105763;1254;61061;-27
2024/03/08 04:27:53;;;;;;;17.00;7.40;;;;;;;-3.65;73.86;99442.70;105881;1257;61248;-25
2024/03/08 04:30:21;;;;;;;10.20;4.90;;;;;;;-3.12;73.65;99446.15;105971;1254;72810;-26
2024/03/08 04:32:48;;;;;;;15.20;9.00;;;;;;;-2.12;71.35;99449.52;105866;1255;74790;-26
2024/03/08 04:35:16;;;;;;;12.20;6.70;;;;;;;-1.68;69.53;99448.33;105879;1254;72428;-26
2024/03/08 04:37:42;;;;;;;16.90;7.60;;;;;;;-1.73;68.22;99449.29;105703;1254;61170;-26
2024/03/08 04:40:11;;;;;;;10.20;5.90;;;;;;;-1.99;68.48;99450.77;105574;1256;61163;-26
2024/03/08 04:42:38;;;;;;;11.50;6.60;;;;;;;-2.26;68.87;99448.99;105877;1254;72611;-26
2024/03/08 04:45:05;;;;;;;12.50;6.90;;;;;;;-2.51;69.69;99443.94;105867;1254;74231;-26
2024/03/08 04:47:33;;;;;;;12.10;6.10;;;;;;;-2.73;70.24;99442.88;105675;1254;72710;-26
2024/03/08 04:50:00;;;;;;;12.90;6.70;;;;;;;-2.95;70.54;99441.61;105927;1256;61048;-26
2024/03/08 04:52:28;;;;;;;9.30;5.70;;;;;;;-3.14;71.11;99440.77;105868;1256;61105;-26
2024/03/08 04:54:55;;;;;;;10.80;5.40;;;;;;;-3.30;71.33;99438.84;105839;1257;72770;-26
2024/03/08 04:57:22;;;;;;;10.00;5.40;;;;;;;-3.41;71.79;99437.70;105631;1254;74391;-25
2024/03/08 04:59:49;;;;;;;8.30;4.20;;;;;;;-3.54;72.25;99430.45;105731;1254;72607;-26
2024/03/08 05:02:17;;;;;;;9.20;4.90;;;;;;;-3.02;71.94;99434.08;105546;1255;61615;-26
2024/03/08 05:04:44;;;;;;;13.60;5.90;;;;;;;-1.97;69.65;99436.92;105581;1257;61246;-26
2024/03/08 05:07:10;;;;;;;9.00;5.80;;;;;;;-1.58;67.14;99439.75;105742;1254;72703;-26
2024/03/08 05:09:37;;;;;;;9.40;5.20;;;;;;;-1.69;66.73;99437.96;105871;1257;74401;-26
2024/03/08 05:12:04;;;;;;;8.30;5.10;;;;;;;-1.87;67.70;99437.90;105882;1252;71577;-26
2024/03/08 05:14:31;;;;;;;15.10;7.30;;;;;;;-2.02;68.77;99438.94;105823;1252;60977;-26
2024/03/08 05:16:58;;;;;;;17.40;8.20;;;;;;;-2.17;69.60;99439.27;105751;1252;61160;-26
2024/03/08 05:19:25;;;;;;;14.20;8.20;;;;;;;-2.30;70.44;99438.54;105739;1254;72998;-26
2024/03/08 05:21:52;;;;;;;19.10;9.50;;;;;;;-2.38;70.91;99443.99;105858;1256;74291;-26
2024/03/08 05:24:19;;;;;;;14.10;7.70;;;;;;;-2.51;72.28;99443.77;105681;1253;72412;-26
2024/03/08 05:26:47;;;;;;;16.50;9.20;;;;;;;-1.96;71.73;99445.25;105668;1252;61045;-26
2024/03/08 05:29:14;;;;;;;14.50;7.10;;;;;;;-1.01;69.08;99445.39;105638;1252;61224;-26
2024/03/08 05:31:54;;;;;;;11.20;7.00;;;;;;;-0.64;67.76;99445.91;105642;1254;73557;-26
2024/03/08 05:34:22;;;;;;;17.40;9.20;;;;;;;-0.52;67.57;99447.44;105704;1259;74918;-26
2024/03/08 05:36:50;;;;;;;12.80;7.20;;;;;;;-0.59;67.36;99445.75;105820;1254;72690;-25
2024/03/08 05:39:17;;;;;;;15.00;8.00;;;;;;;-0.63;67.86;99448.79;105903;1253;61003;-26
2024/03/08 05:41:45;;;;;;;12.50;7.40;;;;;;;-0.69;68.44;99453.23;105690;1253;61214;-26
2024/03/08 05:44:13;;;;;;;18.20;8.50;;;;;;;-0.83;69.03;99454.09;105835;1254;72722;-26
2024/03/08 05:46:39;;;;;;;13.00;8.60;;;;;;;-0.96;69.83;99451.59;105922;1254;74221;-26
2024/03/08 05:49:06;;;;;;;17.90;7.80;;;;;;;-1.06;70.17;99453.37;105942;1254;72459;-26
2024/03/08 05:51:35;;;;;;;14.70;8.70;;;;;;;-1.19;70.83;99452.01;105863;1254;61151;-26
2024/03/08 05:54:05;;;;;;;15.00;8.10;;;;;;;-0.85;70.56;99449.05;105526;1256;61064;-26
2024/03/08 05:56:33;;;;;;;16.60;7.50;;;;;;;0.01;67.74;99447.71;105703;1254;73014;-28
2024/03/08 05:59:00;;;;;;;20.10;8.90;;;;;;;-0.01;67.20;99444.39;105901;1256;74382;-28
2024/03/08 06:01:27;;;;;;;16.40;8.90;;;;;;;-0.09;67.69;99446.84;105869;1254;72128;-27
2024/03/08 06:03:57;;;;;;;14.00;8.10;;;;;;;-0.16;68.05;99444.66;105640;1255;61014;-27
2024/03/08 06:06:24;;;;;;;13.80;7.80;;;;;;;-0.46;68.90;99450.17;105711;1259;61695;-26
2024/03/08 06:08:51;;;;;;;12.40;7.90;;;;;;;-0.59;69.78;99449.70;105879;1254;73279;-28
2024/03/08 06:11:20;;;;;;;15.10;6.80;;;;;;;-0.71;70.09;99447.63;105843;1256;74441;-28
2024/03/08 06:13:47;;;;;;;16.10;7.70;;;;;;;-0.98;71.42;99449.59;105841;1258;71542;-29
2024/03/08 06:16:14;;;;;;;17.20;7.50;;;;;;;-0.68;71.42;99450.77;105856;1252;61154;-29
2024/03/08 06:18:41;;;;;;;13.60;8.90;;;;;;;0.25;68.12;99449.34;105620;1257;61160;-28
2024/03/08 06:21:16;;;;;;;14.00;6.90;;;;;;;0.27;66.58;99449.64;105942;1256;72813;-27
2024/03/08 06:23:42;;;;;;;17.00;8.60;;;;;;;0.10;67.80;99450.68;105851;1260;73375;-29
2024/03/08 06:26:09;;;;;;;7.30;4.60;;;;;;;0.06;69.27;99456.26;105918;1257;72658;-27
2024/03/08 06:28:36;;;;;;;17.70;11.20;;;;;;;0.14;67.94;99455.16;105821;1254;61074;-29
2024/03/08 06:31:03;;;;;;;14.20;8.20;;;;;;;-0.02;68.03;99452.60;105809;1257;61166;-28
2024/03/08 06:33:32;;;;;;;16.60;9.20;;;;;;;-0.13;69.27;99452.40;105948;1254;72745;-28
2024/03/08 06:35:59;;;;;;;18.10;11.00;;;;;;;-0.30;69.37;99449.52;105951;1257;73952;-29
2024/03/08 06:38:26;;;;;;;16.20;9.00;;;;;;;0.11;68.64;99446.71;105898;1255;72502;-29
2024/03/08 06:40:54;;;;;;;14.30;9.60;;;;;;;0.43;66.57;99449.44;105980;1254;61058;-29
2024/03/08 06:43:21;;;;;;;11.40;7.20;;;;;;;0.64;65.57;99450.09;105901;1256;61108;-27
2024/03/08 06:45:48;;;;;;;19.70;9.20;;;;;;;0.69;66.04;99449.06;105920;1256;73570;-29
2024/03/08 06:48:18;;;;;;;16.00;8.90;;;;;;;0.81;65.74;99448.17;105938;1257;74163;-29
2024/03/08 06:50:46;;;;;;;14.00;6.60;;;;;;;0.79;65.87;99447.59;105739;1255;72562;-27
2024/03/08 06:53:13;;;;;;;16.90;10.20;;;;;;;0.54;65.53;99448.21;105592;1260;61000;-27
2024/03/08 06:55:40;;;;;;;14.60;8.80;;;;;;;0.37;65.70;99441.61;105809;1254;61105;-29
2024/03/08 06:58:07;;;;;;;19.20;10.50;;;;;;;0.50;66.99;99444.44;105854;1254;72887;-27
2024/03/08 07:00:34;;;;;;;16.40;7.40;;;;;;;0.53;67.40;99437.83;105808;1256;74019;-28
2024/03/08 07:03:01;;;;;;;16.90;10.30;;;;;;;0.66;66.58;99438.77;105768;1255;73026;-29
2024/03/08 07:05:29;;;;;;;19.20;10.00;;;;;;;0.62;67.30;99437.02;105793;1254;61754;-28
2024/03/08 07:07:58;;;;;;;21.20;9.80;;;;;;;0.80;66.00;99439.98;105697;1259;61030;-29
2024/03/08 07:10:25;;;;;;;17.40;8.40;;;;;;;0.98;65.74;99438.86;105874;1257;73413;-28
2024/03/08 07:12:53;;;;;;;14.80;9.10;;;;;;;1.02;66.14;99439.38;105878;1257;74797;-28
2024/03/08 07:15:20;;;;;;;13.40;8.10;;;;;;;1.00;66.06;99440.84;105836;1254;74130;-27
2024/03/08 07:17:47;;;;;;;8.60;6.40;;;;;;;0.89;65.73;99440.35;105888;1256;61167;-28
2024/03/08 07:20:18;;;;;;;15.40;7.20;;;;;;;1.01;66.31;99437.21;105925;1256;61639;-27
2024/03/08 07:22:51;;;;;;;19.00;11.10;;;;;;;1.22;65.77;99436.80;105712;1254;72901;-29
2024/03/08 07:25:22;;;;;;;19.70;10.40;;;;;;;1.24;64.84;99435.16;105889;1254;73848;-29
2024/03/08 07:27:51;;;;;;;15.20;9.30;;;;;;;1.39;63.99;99438.20;105858;1254;74181;-28
2024/03/08 07:33:06;;;;;;;17.70;9.80;;;;;;;1.65;63.77;99436.05;105588;1260;61501;-28
2024/03/08 07:35:36;;;;;;;13.30;8.90;;;;;;;1.58;64.35;99436.48;105819;1266;74743;-28
2024/03/08 07:38:09;;;;;;;17.30;10.30;;;;;;;1.66;63.58;99436.02;105855;1260;74593;-28
2024/03/08 07:40:39;;;;;;;17.10;9.60;;;;;;;2.04;63.43;99433.17;105723;1257;70708;-29
2024/03/08 07:43:10;;;;;;;18.90;10.10;;;;;;;2.34;62.66;99436.93;105874;1252;61009;-27
2024/03/08 07:45:38;;;;;;;19.90;10.60;;;;;;;2.68;61.84;99433.30;105685;1254;61164;-29
2024/03/08 07:48:09;;;;;;;13.80;8.20;;;;;;;2.63;61.61;99434.37;105703;1259;74884;-28
2024/03/08 07:50:37;;;;;;;12.60;7.70;;;;;;;2.51;60.91;99435.20;105859;1257;74395;-28
2024/03/08 07:53:08;;;;;;;12.50;8.10;;;;;;;2.63;60.61;99434.68;105729;1257;71680;-27
2024/03/08 07:55:35;;;;;;;13.80;8.30;;;;;;;2.69;60.64;99438.38;105574;1258;61173;-28
2024/03/08 07:58:02;;;;;;;17.40;9.70;;;;;;;2.74;60.78;99440.77;105815;1266;61092;-27
2024/03/08 08:00:31;;;;;;;15.00;8.50;;;;;;;2.90;60.43;99442.66;105770;1254;75197;-27
2024/03/08 08:02:58;;;;;;;19.60;10.30;;;;;;;3.14;59.37;99441.95;105783;1258;74149;-27
2024/03/08 08:05:26;;;;;;;8.20;5.80;;;;;;;3.36;58.44;99439.92;105935;1255;74066;-25
2024/03/08 08:07:53;;;;;;;14.30;8.70;;;;;;;3.26;58.48;99440.89;105952;1257;61083;-26
2024/03/08 08:10:24;;;;;;;15.20;8.50;;;;;;;3.04;58.67;99442.53;105680;1256;61167;-27
2024/03/08 08:12:51;;;;;;;18.30;9.20;;;;;;;3.47;58.34;99440.64;105619;1258;73958;-26
2024/03/08 08:15:18;;;;;;;10.60;6.50;;;;;;;3.84;57.10;99444.79;105770;1256;73496;-27
2024/03/08 08:17:45;;;;;;;17.00;9.30;;;;;;;4.17;55.85;99438.58;105822;1254;73085;-28
2024/03/08 08:20:12;;;;;;;19.30;9.40;;;;;;;4.18;55.19;99438.02;105860;1254;61040;-27
2024/03/08 08:22:43;;;;;;;12.00;7.70;;;;;;;4.40;55.25;99438.15;105854;1257;61707;-26
2024/03/08 08:25:12;;;;;;;13.20;7.60;;;;;;;4.43;53.85;99439.89;105586;1260;75334;-28
2024/03/08 08:27:40;;;;;;;8.90;5.30;;;;;;;4.50;53.35;99431.65;105654;1257;74816;-27
2024/03/08 08:30:11;;;;;;;14.30;9.60;;;;;;;4.79;52.88;99436.52;105721;1257;74097;-29
2024/03/08 08:32:44;;;;;;;14.00;7.80;;;;;;;4.90;53.03;99430.81;105702;1257;61052;-28
2024/03/08 08:35:12;;;;;;;13.00;7.50;;;;;;;4.98;52.39;99423.86;105714;1256;61194;-30
2024/03/08 08:37:39;;;;;;;12.00;7.70;;;;;;;5.05;52.30;99427.45;105729;1257;72807;-31
2024/03/08 08:40:10;;;;;;;16.30;8.90;;;;;;;4.92;51.97;99426.27;105890;1257;73340;-31
2024/03/08 08:42:37;;;;;;;11.70;7.20;;;;;;;4.97;52.13;99420.64;105651;1255;73010;-29
2024/03/08 08:45:08;;;;;;;12.80;6.50;;;;;;;4.96;50.94;99419.52;105851;1253;60988;-30
2024/03/08 08:47:44;;;;;;;17.50;8.10;;;;;;;5.16;51.01;99414.13;105695;1260;61173;-30
2024/03/08 08:50:12;;;;;;;17.90;8.70;;;;;;;5.47;50.74;99414.91;105919;1257;74977;-30
2024/03/08 08:52:40;;;;;;;11.50;7.20;;;;;;;5.53;50.10;99418.39;105901;1254;73400;-27
2024/03/08 08:55:07;;;;;;;10.40;7.00;;;;;;;5.12;50.38;99414.55;105904;1255;73076;-30
2024/03/08 08:57:35;;;;;;;10.60;6.10;;;;;;;5.43;50.05;99416.52;105896;1256;61624;-28
2024/03/08 09:00:07;;;;;;;10.80;7.00;;;;;;;5.72;49.39;99423.23;105914;1252;61099;-29
2024/03/08 09:02:34;;;;;;;9.60;6.50;;;;;;;5.70;48.86;99419.88;105869;1257;75085;-27
2024/03/08 09:05:01;;;;;;;8.70;5.90;;;;;;;6.07;47.59;99416.29;105922;1256;73945;-29
2024/03/08 09:07:29;;;;;;;13.20;7.60;;;;;;;6.03;48.70;99412.70;105838;1257;72989;-27
2024/03/08 09:09:58;;;;;;;13.30;6.80;;;;;;;6.08;46.86;99416.22;105681;1258;61615;-28
2024/03/08 09:12:25;;;;;;;7.70;5.40;;;;;;;6.27;47.53;99413.41;105542;1257;61170;-29
2024/03/08 09:14:52;;;;;;;7.50;5.10;;;;;;;6.70;45.98;99411.80;105755;1257;72790;-27
2024/03/08 09:17:20;;;;;;;9.50;6.10;;;;;;;6.94;45.00;99414.71;105829;1260;75461;-27
2024/03/08 09:19:47;;;;;;;8.40;5.80;;;;;;;6.51;45.09;99411.38;105884;1257;72087;-27
2024/03/08 09:22:14;;;;;;;7.00;4.40;;;;;;;6.34;44.81;99405.95;105726;1256;61067;-27
2024/03/08 09:24:43;;;;;;;11.90;5.20;;;;;;;6.73;44.11;99406.61;105852;1257;61579;-28
2024/03/08 09:27:10;;;;;;;10.00;6.30;;;;;;;6.54;44.02;99405.44;105779;1258;73059;-28
2024/03/08 09:29:36;;;;;;;8.10;5.80;;;;;;;6.11;45.30;99406.92;105830;1259;73797;-27
2024/03/08 09:32:04;;;;;;;6.50;4.30;;;;;;;6.09;44.31;99398.94;105872;1257;72052;-27
2024/03/08 09:34:31;;;;;;;5.40;3.50;;;;;;;5.91;43.89;99390.63;105871;1254;61609;-26
2024/03/08 09:37:05;;;;;;;6.20;3.80;;;;;;;6.34;42.99;99394.40;105860;1254;61536;-27
2024/03/08 09:39:33;;;;;;;5.30;3.50;;;;;;;6.72;42.83;99393.54;105853;1257;75357;-28
2024/03/08 09:42:01;;;;;;;7.00;4.10;;;;;;;6.74;42.91;99388.77;105884;1254;73501;-27
2024/03/08 09:44:28;;;;;;;5.20;3.40;;;;;;;6.23;44.16;99393.84;105715;1257;73976;-27
2024/03/08 09:46:56;;;;;;;8.20;5.30;;;;;;;6.86;42.29;99388.78;105837;1252;61584;-27
2024/03/08 09:49:23;;;;;;;11.70;4.40;;;;;;;6.97;42.49;99392.08;105706;1258;61262;-27
2024/03/08 09:51:51;;;;;;;5.60;3.70;;;;;;;6.83;42.29;99391.52;105855;1254;73067;-27
2024/03/08 09:54:21;;;;;;;6.90;3.90;;;;;;;6.65;42.08;99386.77;105892;1254;73615;-28
2024/03/08 09:56:51;;;;;;;6.30;3.20;;;;;;;6.54;42.04;99384.84;105727;1255;72593;-27
2024/03/08 09:59:42;;;;;;;6.50;3.80;;;;;;;6.50;42.28;99378.79;105913;1252;61614;-27
2024/03/08 10:02:12;;;;;;;6.20;3.20;;;;;;;7.22;41.79;99371.91;105870;1254;62062;-27
2024/03/08 10:04:42;;;;;;;6.90;4.10;;;;;;;7.19;40.46;99368.11;105696;1260;73365;-28
2024/03/08 10:07:09;;;;;;;4.50;2.90;;;;;;;7.09;40.40;99371.00;105881;1257;75355;-28
2024/03/08 10:09:36;;;;;;;5.30;3.20;;;;;;;6.56;41.06;99377.09;105882;1257;70492;-27
2024/03/08 10:12:05;;;;;;;5.10;3.40;;;;;;;6.72;39.98;99371.99;105903;1253;61098;-27
2024/03/08 10:14:32;;;;;;;4.90;3.60;;;;;;;7.13;39.97;99369.17;105764;1259;61182;-27
2024/03/08 10:17:00;;;;;;;5.60;3.50;;;;;;;7.21;39.92;99366.61;105724;1257;72943;-27
2024/03/08 10:19:30;;;;;;;5.70;3.00;;;;;;;6.90;40.24;99368.13;105883;1254;74443;-28
2024/03/08 10:21:58;;;;;;;5.80;3.10;;;;;;;7.49;39.27;99363.29;105924;1254;75124;-27
2024/03/08 10:24:25;;;;;;;11.40;3.40;;;;;;;7.05;40.85;99359.63;105783;1254;61062;-27
2024/03/08 10:26:54;;;;;;;6.20;4.10;;;;;;;7.72;40.04;99356.70;105889;1258;61109;-28
2024/03/08 10:29:21;;;;;;;6.80;3.70;;;;;;;8.18;39.16;99353.01;105678;1258;72725;-28
2024/03/08 10:31:50;;;;;;;8.10;4.60;;;;;;;7.40;40.19;99352.12;105908;1254;73616;-28
2024/03/08 10:34:17;;;;;;;4.60;3.40;;;;;;;7.63;40.58;99357.74;105893;1254;72990;-27
2024/03/08 10:36:43;;;;;;;9.20;5.20;;;;;;;7.95;40.77;99351.05;105472;1257;61105;-27
2024/03/08 10:39:22;;;;;;;8.50;4.10;;;;;;;7.11;41.95;99350.83;105636;1256;61640;-27
2024/03/08 10:41:56;;;;;;;5.30;3.40;;;;;;;7.64;40.59;99346.16;105541;1262;74008;-27
2024/03/08 10:44:29;;;;;;;6.50;4.70;;;;;;;7.94;40.74;99336.73;105870;1253;74501;-28
2024/03/08 10:47:09;;;;;;;5.00;3.60;;;;;;;8.53;39.68;99336.32;105538;1255;73706;-28
2024/03/08 10:49:55;;;;;;;8.20;5.30;;;;;;;8.20;40.54;99337.50;105876;1257;61115;-28
2024/03/08 10:52:22;;;;;;;6.90;4.70;;;;;;;8.13;40.53;99337.09;105912;1254;61154;-28
2024/03/08 10:54:50;;;;;;;6.90;4.00;;;;;;;8.54;39.70;99333.64;105918;1254;74305;-28
2024/03/08 10:57:18;;;;;;;6.20;4.00;;;;;;;7.73;40.99;99334.30;105638;1254;74390;-27
2024/03/08 10:59:47;;;;;;;6.00;3.10;;;;;;;7.69;41.19;99331.61;105543;1254;73155;-28
2024/03/08 11:02:15;;;;;;;6.20;4.10;;;;;;;8.45;39.03;99324.59;105806;1256;61070;-28
2024/03/08 11:04:49;;;;;;;5.90;4.20;;;;;;;8.26;39.90;99327.55;105515;1254;61096;-28
2024/03/08 11:07:19;;;;;;;5.70;3.80;;;;;;;8.55;38.84;99323.90;105646;1260;73258;-27
2024/03/08 11:09:48;;;;;;;5.50;3.80;;;;;;;8.62;38.72;99321.20;105831;1254;73685;-27
2024/03/08 11:12:19;;;;;;;8.10;5.60;;;;;;;8.06;39.77;99321.04;105731;1253;73945;-27
2024/03/08 11:14:49;;;;;;;5.80;3.40;;;;;;;7.30;40.93;99318.91;105702;1257;61247;-28
2024/03/08 11:17:27;;;;;;;7.20;4.70;;;;;;;7.34;40.67;99319.67;105646;1257;61167;-27
2024/03/08 11:20:00;;;;;;;5.80;3.80;;;;;;;8.17;38.86;99314.52;105621;1257;72785;-34
2024/03/08 11:22:31;;;;;;;7.20;5.00;;;;;;;8.66;38.18;99309.65;105854;1254;74450;-28
2024/03/08 11:25:09;;;;;;;7.20;5.20;;;;;;;8.87;37.80;99300.77;105632;1261;72865;-28
2024/03/08 11:27:36;;;;;;;8.70;4.90;;;;;;;8.11;38.72;99302.77;105840;1254;61603;-27
2024/03/08 11:30:11;;;;;;;5.40;4.00;;;;;;;8.03;40.19;99302.13;105791;1253;61160;-28
2024/03/08 11:32:46;;;;;;;11.20;6.40;;;;;;;8.78;37.57;99306.59;105627;1254;74349;-27
2024/03/08 11:35:25;;;;;;;5.10;3.70;;;;;;;8.17;37.51;99300.14;105686;1254;75131;-27
2024/03/08 11:37:52;;;;;;;8.20;3.90;;;;;;;7.81;38.98;99295.23;105829;1254;71914;-27
2024/03/08 11:40:19;;;;;;;7.10;4.20;;;;;;;8.14;38.30;99293.95;105882;1255;61644;-27
2024/03/08 11:42:49;;;;;;;7.60;5.00;;;;;;;8.21;38.02;99295.91;105887;1257;62032;-28
2024/03/08 11:45:17;;;;;;;9.10;5.10;;;;;;;8.04;38.33;99292.04;105950;1257;74093;-27
2024/03/08 11:47:46;;;;;;;9.70;5.10;;;;;;;8.19;38.71;99293.43;105874;1255;73688;-27
2024/03/08 11:50:14;;;;;;;8.50;5.20;;;;;;;7.36;40.77;99291.06;105894;1254;74089;-27
2024/03/08 11:52:42;;;;;;;6.60;4.30;;;;;;;7.61;40.91;99282.89;105744;1253;61064;-27
2024/03/08 11:55:09;;;;;;;3.80;2.90;;;;;;;8.26;39.78;99290.54;105831;1256;61167;-28
2024/03/08 11:57:36;;;;;;;7.50;4.30;;;;;;;8.22;39.23;99288.35;105823;1254;73855;-25
2024/03/08 12:00:07;;;;;;;6.40;4.10;;;;;;;7.69;39.02;99286.52;105936;1254;75773;-25
2024/03/08 12:02:40;;;;;;;5.90;3.50;;;;;;;7.79;38.76;99282.92;105685;1259;72845;-25
2024/03/08 12:05:09;;;;;;;6.60;3.30;;;;;;;7.44;38.10;99283.96;105650;1254;61077;-25
2024/03/08 12:07:36;;;;;;;6.00;3.70;;;;;;;7.88;38.82;99285.48;105915;1256;61162;-28
2024/03/08 12:10:22;;;;;;;5.60;3.20;;;;;;;7.72;36.74;99278.05;105954;1254;75179;-26
2024/03/08 12:12:52;;;;;;;6.70;4.10;;;;;;;7.64;37.26;99277.89;105685;1254;73890;-28
2024/03/08 12:15:20;;;;;;;5.10;3.50;;;;;;;7.77;36.52;99278.73;105873;1254;72684;-27
2024/03/08 12:17:49;;;;;;;6.10;3.60;;;;;;;7.92;37.18;99277.06;105742;1254;61103;-27
2024/03/08 12:20:23;;;;;;;5.50;4.00;;;;;;;7.68;38.22;99277.26;105783;1253;60988;-27
2024/03/08 12:22:53;;;;;;;5.80;3.80;;;;;;;7.26;38.81;99272.03;105880;1254;75246;-27
2024/03/08 12:25:21;;;;;;;5.00;3.30;;;;;;;7.14;37.84;99266.38;105918;1254;74949;-27
2024/03/08 12:27:48;;;;;;;6.30;4.00;;;;;;;7.06;38.60;99267.75;105886;1254;71536;-27
2024/03/08 12:30:28;;;;;;;7.50;4.20;;;;;;;7.33;38.45;99263.83;105866;1256;61163;-27
2024/03/08 12:32:59;;;;;;;5.10;3.20;;;;;;;7.44;37.96;99256.17;105753;1252;61108;-28
2024/03/08 12:35:28;;;;;;;6.30;3.60;;;;;;;7.15;38.69;99259.45;105676;1253;74646;-28
2024/03/08 12:37:56;;;;;;;6.80;4.00;;;;;;;7.01;39.31;99251.52;105733;1254;73844;-27
2024/03/08 12:40:31;;;;;;;8.10;4.60;;;;;;;6.91;39.70;99256.26;105837;1254;72614;-27
2024/03/08 12:42:58;;;;;;;5.90;3.90;;;;;;;7.37;40.49;99247.17;105566;1255;61062;-27
2024/03/08 12:45:25;;;;;;;7.10;3.10;;;;;;;7.47;40.53;99245.79;105749;1252;61026;-27
2024/03/08 12:47:55;;;;;;;10.60;4.30;;;;;;;7.17;40.18;99245.64;105728;1254;74787;-27
2024/03/08 12:50:23;;;;;;;8.40;3.90;;;;;;;7.46;38.67;99241.35;105532;1258;75826;-27
2024/03/08 12:52:49;;;;;;;9.00;3.80;;;;;;;7.47;39.11;99233.90;105736;1255;73215;-27
2024/03/08 12:55:20;;;;;;;5.40;3.10;;;;;;;7.49;38.61;99230.50;105859;1254;61055;-28
2024/03/08 12:57:48;;;;;;;6.60;4.20;;;;;;;7.43;38.04;99231.34;105908;1254;61154;-27
2024/03/08 13:00:23;;;;;;;7.50;4.10;;;;;;;7.06;39.91;99229.45;105826;1254;73819;-27
2024/03/08 13:02:51;;;;;;;6.50;3.80;;;;;;;7.04;39.95;99230.07;105903;1254;75745;-27
2024/03/08 13:05:18;;;;;;;8.90;5.80;;;;;;;6.90;40.72;99230.60;105938;1254;72030;-27
2024/03/08 13:07:45;;;;;;;7.90;5.30;;;;;;;6.58;41.34;99228.77;105888;1254;61179;-27